^^
Station Historical Data
Daily Summary for January 24, 2017 Units:  English    Metric   Both
« Previous Day
Next Day »
Daily Weekly Monthly Yearly Custom
  High: Low: Average:
Temperature: 45.1 °F 34.7 °F 38.1 °F
Dew Point: 38.0 °F 30.3 °F 33.5 °F
Humidity: 94 % 73 % 84 %
Wind Speed: 14.9 mph 0.7 mph 7 mph
Wind Gust: 23.0 mph - -
Wind:- - WSW
Pressure: 29.60 in 29.42 in -
Precipitation: 0.30 in    
Historical Graphs
 
 
Tabular Data for January 24, 2017
Time Temperature Dew Point Pressure Wind Wind Speed Wind Gust Humidity Rainfall Rate (Hourly) solar Conditions
00:07 34.7 °F 32.6 °F 29.49 in NNE 9.9 mph 12.7 mph 92 % 0.05 in 0.0 W/m2 RA
00:12 34.7 °F 32.6 °F 29.48 in NE 10.4 mph 14.0 mph 92 % 0.06 in 0.0 W/m2 RA
00:17 34.7 °F 32.6 °F 29.48 in NE 6.4 mph 10.4 mph 92 % 0.07 in 0.0 W/m2 RA
00:25 34.7 °F 32.6 °F 29.48 in NE 9.0 mph 20.0 mph 92 % 0.00 in 0.0 W/m2 RA
00:30 34.7 °F 32.6 °F 29.48 in NE 7.5 mph 10.4 mph 92 % 0.09 in 0.0 W/m2 RA
00:35 34.8 °F 32.7 °F 29.48 in NNE 7.6 mph 10.4 mph 92 % 0.09 in 0.0 W/m2 RA
00:40 34.8 °F 32.7 °F 29.48 in NE 9.0 mph 16.1 mph 92 % 0.09 in 0.0 W/m2 RA
00:45 34.8 °F 32.7 °F 29.48 in NNE 8.4 mph 13.8 mph 92 % 0.10 in 0.0 W/m2 RA
00:50 34.8 °F 32.7 °F 29.48 in NE 9.2 mph 12.0 mph 92 % 0.10 in 0.0 W/m2 RA
00:55 34.9 °F 33.1 °F 29.47 in NNE 6.6 mph 9.2 mph 93 % 0.09 in 0.0 W/m2 RA
01:00 34.9 °F 33.1 °F 29.48 in NE 5.5 mph 9.2 mph 93 % 0.08 in 0.0 W/m2
01:05 35.0 °F 33.2 °F 29.48 in NE 4.1 mph 4.6 mph 93 % 0.08 in 0.0 W/m2 RA
01:10 35.0 °F 33.2 °F 29.47 in NE 3.8 mph 5.0 mph 93 % 0.07 in 0.0 W/m2 RA
01:15 35.1 °F 33.3 °F 29.47 in NNE 7.0 mph 10.4 mph 93 % 0.08 in 0.0 W/m2 RA
01:20 35.2 °F 33.4 °F 29.47 in NNE 6.6 mph 10.4 mph 93 % 0.07 in 0.0 W/m2 RA
01:25 35.2 °F 33.1 °F 29.47 in NNE 2.8 mph 3.5 mph 92 % 0.06 in 0.0 W/m2
01:30 35.2 °F 33.1 °F 29.47 in North 5.1 mph 6.0 mph 92 % 0.05 in 0.0 W/m2
01:35 35.3 °F 33.2 °F 29.47 in NNE 4.5 mph 6.0 mph 92 % 0.05 in 0.0 W/m2 RA
01:40 35.4 °F 33.3 °F 29.47 in North 2.2 mph 3.5 mph 92 % 0.05 in 0.0 W/m2 RA
01:45 35.4 °F 33.3 °F 29.48 in North 2.2 mph 3.5 mph 92 % 0.05 in 0.0 W/m2 RA
01:50 35.5 °F 33.7 °F 29.47 in NNE 2.4 mph 3.5 mph 93 % 0.04 in 0.0 W/m2 RA
01:55 35.6 °F 33.8 °F 29.47 in NNE 3.6 mph 5.0 mph 93 % 0.05 in 0.0 W/m2 RA
02:00 35.7 °F 33.9 °F 29.48 in NNE 3.5 mph 4.6 mph 93 % 0.05 in 0.0 W/m2 RA
02:08 35.8 °F 34.0 °F 29.49 in NW 1.0 mph 2.3 mph 93 % 0.05 in 0.0 W/m2 RA
02:13 35.9 °F 34.1 °F 29.48 in North 3.8 mph 5.8 mph 93 % 0.06 in 0.0 W/m2 RA
02:19 36.0 °F 34.2 °F 29.48 in North 2.5 mph 3.5 mph 93 % 0.07 in 0.0 W/m2 RA
02:25 36.0 °F 34.2 °F 29.48 in NNW 3.1 mph 3.5 mph 93 % 0.08 in 0.0 W/m2 RA
02:30 35.8 °F 34.0 °F 29.48 in North 3.8 mph 8.1 mph 93 % 0.09 in 0.0 W/m2 RA
02:35 35.5 °F 33.4 °F 29.48 in North 3.5 mph 6.9 mph 92 % 0.09 in 0.0 W/m2 RA
02:40 35.2 °F 33.4 °F 29.47 in NNW 1.3 mph 4.6 mph 93 % 0.09 in 0.0 W/m2 RA
02:45 35.1 °F 33.3 °F 29.47 in North 0.8 mph 3.5 mph 93 % 0.09 in 0.0 W/m2 RA
02:50 35.2 °F 33.4 °F 29.47 in North 0.7 mph 2.3 mph 93 % 0.10 in 0.0 W/m2 RA
02:55 35.2 °F 33.4 °F 29.47 in North 2.3 mph 4.6 mph 93 % 0.09 in 0.0 W/m2 RA
03:05 35.3 °F 33.5 °F 29.47 in NNW 3.2 mph 5.8 mph 93 % 0.09 in 0.0 W/m2 RA
03:10 35.4 °F 33.6 °F 29.47 in North 2.8 mph 3.5 mph 93 % 0.09 in 0.0 W/m2 RA
03:15 35.4 °F 33.6 °F 29.47 in NNE 2.2 mph 3.5 mph 93 % 0.08 in 0.0 W/m2 RA
03:20 35.4 °F 33.6 °F 29.47 in North 2.3 mph 4.6 mph 93 % 0.07 in 0.0 W/m2
03:25 35.4 °F 33.6 °F 29.48 in North 2.7 mph 4.6 mph 93 % 0.07 in 0.0 W/m2 RA
03:30 35.3 °F 33.5 °F 29.48 in NNW 3.5 mph 6.0 mph 93 % 0.06 in 0.0 W/m2 RA
03:35 35.3 °F 33.7 °F 29.47 in North 5.0 mph 9.2 mph 94 % 0.05 in 0.0 W/m2
03:41 35.3 °F 33.7 °F 29.47 in NNE 3.9 mph 8.1 mph 94 % 0.05 in 0.0 W/m2
03:46 35.3 °F 33.5 °F 29.47 in North 3.3 mph 4.6 mph 93 % 0.05 in 0.0 W/m2 RA
03:51 35.4 °F 33.6 °F 29.47 in North 2.4 mph 4.0 mph 93 % 0.04 in 0.0 W/m2 RA
03:56 35.4 °F 33.6 °F 29.47 in NNE 3.3 mph 5.8 mph 93 % 0.04 in 0.0 W/m2
04:01 35.3 °F 33.5 °F 29.47 in NNE 4.0 mph 5.8 mph 93 % 0.03 in 0.0 W/m2
04:06 35.2 °F 33.4 °F 29.47 in NNE 4.4 mph 4.6 mph 93 % 0.03 in 0.0 W/m2
04:11 35.1 °F 33.3 °F 29.47 in NNW 2.4 mph 6.0 mph 93 % 0.03 in 0.0 W/m2 RA
04:16 35.1 °F 33.5 °F 29.47 in NNE 4.8 mph 9.2 mph 94 % 0.03 in 0.0 W/m2 RA
04:21 35.2 °F 33.6 °F 29.47 in NNW 2.1 mph 4.0 mph 94 % 0.03 in 0.0 W/m2
04:26 35.3 °F 33.7 °F 29.47 in North 1.4 mph 3.5 mph 94 % 0.02 in 0.0 W/m2
04:31 35.3 °F 33.7 °F 29.46 in North 3.4 mph 4.6 mph 94 % 0.02 in 0.0 W/m2
04:36 35.4 °F 33.8 °F 29.46 in NNW 5.2 mph 9.2 mph 94 % 0.02 in 0.0 W/m2
04:41 35.4 °F 33.8 °F 29.46 in NNE 6.5 mph 11.5 mph 94 % 0.02 in 0.0 W/m2
04:46 35.4 °F 33.8 °F 29.46 in NNW 4.4 mph 9.2 mph 94 % 0.01 in 0.0 W/m2
04:51 35.5 °F 33.9 °F 29.45 in North 0.8 mph 3.5 mph 94 % 0.01 in 0.0 W/m2
04:56 35.6 °F 34.0 °F 29.45 in North 3.2 mph 4.6 mph 94 % 0.01 in 0.0 W/m2
05:01 35.6 °F 34.0 °F 29.45 in North 2.2 mph 5.8 mph 94 % 0.01 in 0.0 W/m2
05:06 35.7 °F 34.1 °F 29.45 in North 2.7 mph 5.8 mph 94 % 0.01 in 0.0 W/m2
05:11 35.7 °F 34.1 °F 29.45 in NNE 4.7 mph 8.1 mph 94 % 0.00 in 0.0 W/m2
05:16 35.7 °F 34.1 °F 29.46 in North 4.1 mph 6.9 mph 94 % 0.00 in 0.0 W/m2 CLR
05:21 35.7 °F 34.1 °F 29.45 in North 4.0 mph 8.1 mph 94 % 0.00 in 0.0 W/m2 CLR
05:26 35.8 °F 34.2 °F 29.46 in North 3.8 mph 5.8 mph 94 % 0.00 in 0.0 W/m2 CLR
05:31 35.8 °F 34.2 °F 29.45 in NNE 2.9 mph 4.0 mph 94 % 0.00 in 0.0 W/m2 CLR
05:36 35.8 °F 34.2 °F 29.46 in NNE 4.3 mph 6.9 mph 94 % 0.00 in 0.0 W/m2 CLR
05:41 35.8 °F 34.2 °F 29.46 in North 3.4 mph 8.1 mph 94 % 0.00 in 0.0 W/m2 CLR
05:46 35.9 °F 34.3 °F 29.46 in North 3.4 mph 10.4 mph 94 % 0.01 in 0.0 W/m2 RA
05:51 35.9 °F 34.3 °F 29.46 in NNW 4.0 mph 9.2 mph 94 % 0.01 in 0.0 W/m2 RA
05:56 35.9 °F 34.3 °F 29.47 in NNW 2.3 mph 3.5 mph 94 % 0.01 in 0.0 W/m2
06:01 36.0 °F 34.4 °F 29.47 in NNW 2.2 mph 7.0 mph 94 % 0.01 in 0.0 W/m2
06:06 36.0 °F 34.4 °F 29.46 in NNW 2.6 mph 4.6 mph 94 % 0.01 in 0.0 W/m2
06:11 36.0 °F 34.4 °F 29.46 in NNW 2.9 mph 3.5 mph 94 % 0.01 in 0.0 W/m2
06:16 36.1 °F 34.5 °F 29.46 in NNE 5.5 mph 8.1 mph 94 % 0.01 in 0.0 W/m2
06:21 36.1 °F 34.5 °F 29.47 in North 5.7 mph 8.1 mph 94 % 0.01 in 0.0 W/m2
06:26 36.2 °F 34.6 °F 29.47 in North 2.2 mph 3.5 mph 94 % 0.01 in 0.0 W/m2
06:31 36.2 °F 34.6 °F 29.47 in North 4.9 mph 11.5 mph 94 % 0.01 in 0.0 W/m2
06:36 36.3 °F 34.7 °F 29.47 in North 4.0 mph 8.1 mph 94 % 0.01 in 0.0 W/m2
06:41 36.3 °F 34.7 °F 29.47 in North 2.9 mph 10.4 mph 94 % 0.01 in 0.0 W/m2
06:46 36.3 °F 34.7 °F 29.47 in NNW 7.0 mph 10.4 mph 94 % 0.00 in 0.0 W/m2 CLR
06:51 36.4 °F 34.8 °F 29.47 in NNE 5.8 mph 11.5 mph 94 % 0.00 in 0.0 W/m2 CLR
06:56 36.5 °F 34.7 °F 29.47 in North 7.4 mph 10.0 mph 93 % 0.00 in 0.0 W/m2 CLR
07:01 36.5 °F 34.7 °F 29.47 in North 4.7 mph 10.4 mph 93 % 0.00 in 0.0 W/m2 OVC
07:06 36.5 °F 34.7 °F 29.47 in North 3.5 mph 8.1 mph 93 % 0.00 in 0.0 W/m2 OVC
07:11 36.6 °F 34.8 °F 29.47 in NNW 4.9 mph 8.1 mph 93 % 0.00 in 0.0 W/m2 OVC
07:16 36.6 °F 34.8 °F 29.46 in NNE 5.3 mph 10.4 mph 93 % 0.00 in 0.0 W/m2 OVC
07:21 36.7 °F 34.9 °F 29.46 in NNW 5.4 mph 10.4 mph 93 % 0.00 in 0.0 W/m2 OVC
07:26 36.7 °F 34.9 °F 29.47 in North 5.4 mph 10.4 mph 93 % 0.00 in 0.0 W/m2 OVC
07:31 36.9 °F 35.1 °F 29.47 in NNW 5.1 mph 8.1 mph 93 % 0.00 in 0.0 W/m2 OVC
07:36 36.9 °F 35.1 °F 29.47 in NW 3.8 mph 6.0 mph 93 % 0.00 in 5.0 W/m2 OVC
07:41 36.8 °F 35.0 °F 29.47 in NW 5.5 mph 9.0 mph 93 % 0.00 in 5.0 W/m2 SCT
07:46 36.6 °F 34.8 °F 29.47 in NNW 3.6 mph 10.4 mph 93 % 0.00 in 9.0 W/m2 SCT
07:51 36.4 °F 34.6 °F 29.47 in NW 5.2 mph 8.1 mph 93 % 0.00 in 9.0 W/m2 BKN
07:56 36.3 °F 34.5 °F 29.47 in NW 6.6 mph 10.0 mph 93 % 0.00 in 11.0 W/m2 BKN
08:02 36.2 °F 34.4 °F 29.47 in North 6.0 mph 11.5 mph 93 % 0.00 in 18.0 W/m2 BKN
08:07 36.1 °F 34.3 °F 29.47 in NNW 3.6 mph 11.5 mph 93 % 0.00 in 23.0 W/m2 BKN
08:12 36.1 °F 34.3 °F 29.47 in NW 7.0 mph 11.5 mph 93 % 0.01 in 33.0 W/m2 RA
08:17 36.1 °F 34.3 °F 29.47 in NW 5.6 mph 9.2 mph 93 % 0.01 in 51.0 W/m2 RA
08:22 36.1 °F 34.3 °F 29.47 in NW 7.1 mph 9.2 mph 93 % 0.01 in 42.0 W/m2 SCT
08:27 36.1 °F 34.3 °F 29.47 in NNW 4.7 mph 10.4 mph 93 % 0.01 in 44.0 W/m2 BKN
08:32 36.1 °F 34.3 °F 29.48 in NW 3.1 mph 4.6 mph 93 % 0.01 in 42.0 W/m2 BKN
08:37 36.2 °F 34.4 °F 29.48 in NNW 5.8 mph 9.2 mph 93 % 0.01 in 53.0 W/m2 BKN
08:42 36.2 °F 34.4 °F 29.48 in NW 9.2 mph 11.5 mph 93 % 0.01 in 51.0 W/m2 BKN
08:47 36.2 °F 34.4 °F 29.48 in NNW 6.5 mph 10.4 mph 93 % 0.01 in 51.0 W/m2 BKN
08:52 36.3 °F 34.5 °F 29.48 in NW 6.0 mph 10.4 mph 93 % 0.01 in 58.0 W/m2 BKN
08:57 36.3 °F 34.5 °F 29.48 in NNW 7.1 mph 10.4 mph 93 % 0.01 in 63.0 W/m2 BKN
09:02 36.3 °F 34.5 °F 29.48 in NNW 5.2 mph 8.1 mph 93 % 0.01 in 54.0 W/m2 BKN
09:07 36.4 °F 34.6 °F 29.48 in WNW 6.2 mph 8.1 mph 93 % 0.01 in 62.0 W/m2 BKN
09:12 36.4 °F 34.6 °F 29.49 in NNW 7.5 mph 11.0 mph 93 % 0.00 in 62.0 W/m2 BKN
09:17 36.5 °F 34.7 °F 29.49 in NW 6.4 mph 11.5 mph 93 % 0.00 in 69.0 W/m2 BKN
09:22 36.5 °F 34.7 °F 29.49 in NW 8.6 mph 12.0 mph 93 % 0.00 in 70.0 W/m2 BKN
09:27 36.6 °F 34.8 °F 29.49 in NW 8.0 mph 10.0 mph 93 % 0.00 in 91.0 W/m2 BKN
09:32 36.7 °F 34.9 °F 29.49 in NW 7.0 mph 11.5 mph 93 % 0.00 in 95.0 W/m2 BKN
09:37 36.9 °F 35.1 °F 29.49 in NW 4.9 mph 8.1 mph 93 % 0.00 in 98.0 W/m2 BKN
09:42 37.1 °F 35.3 °F 29.49 in NNW 8.8 mph 12.7 mph 93 % 0.00 in 100.0 W/m2 BKN
09:47 37.2 °F 35.1 °F 29.49 in NNW 5.1 mph 11.5 mph 92 % 0.00 in 111.0 W/m2 BKN
09:59 37.9 °F 35.8 °F 29.49 in NW 5.3 mph 13.0 mph 92 % 0.00 in 155.0 W/m2 SCT
10:04 38.1 °F 35.7 °F 29.49 in NW 7.5 mph 11.5 mph 91 % 0.00 in 155.0 W/m2 SCT
10:09 38.3 °F 35.6 °F 29.49 in North 6.2 mph 10.4 mph 90 % 0.00 in 160.0 W/m2 SCT
10:14 38.7 °F 35.7 °F 29.49 in NW 9.1 mph 11.5 mph 89 % 0.00 in 163.0 W/m2 SCT
10:19 38.9 °F 35.6 °F 29.49 in NNW 11.0 mph 17.3 mph 88 % 0.00 in 171.0 W/m2 SCT
10:24 39.1 °F 35.6 °F 29.49 in NW 7.9 mph 12.7 mph 87 % 0.00 in 202.0 W/m2 SCT
10:29 39.5 °F 35.7 °F 29.49 in NW 6.9 mph 15.0 mph 86 % 0.00 in 163.0 W/m2 SCT
10:35 39.4 °F 35.3 °F 29.49 in NNW 10.1 mph 17.0 mph 85 % 0.00 in 155.0 W/m2 BKN
10:40 39.4 °F 35.3 °F 29.49 in NNW 10.3 mph 11.5 mph 85 % 0.00 in 185.0 W/m2 BKN
10:45 39.4 °F 35.0 °F 29.48 in NW 10.4 mph 23.0 mph 84 % 0.00 in 213.0 W/m2 SCT
10:50 39.5 °F 35.1 °F 29.48 in NNW 8.0 mph 13.8 mph 84 % 0.00 in 223.0 W/m2 SCT
10:55 39.8 °F 35.1 °F 29.48 in NNW 9.0 mph 13.0 mph 83 % 0.00 in 211.0 W/m2 SCT
11:00 40.0 °F 35.3 °F 29.47 in NNW 9.5 mph 17.3 mph 83 % 0.00 in 218.0 W/m2 SCT
11:05 40.1 °F 35.0 °F 29.47 in West 7.0 mph 11.5 mph 82 % 0.00 in 214.0 W/m2 SCT
11:10 40.2 °F 35.1 °F 29.47 in West 10.9 mph 19.6 mph 82 % 0.00 in 202.0 W/m2 SCT
11:15 40.4 °F 35.3 °F 29.47 in NNW 6.2 mph 9.2 mph 82 % 0.00 in 188.0 W/m2 BKN
11:20 40.3 °F 34.9 °F 29.47 in North 6.9 mph 11.5 mph 81 % 0.00 in 146.0 W/m2 BKN
11:25 40.3 °F 34.9 °F 29.47 in NNW 4.9 mph 9.2 mph 81 % 0.00 in 158.0 W/m2 BKN
11:30 40.3 °F 34.9 °F 29.46 in NNW 9.3 mph 12.7 mph 81 % 0.00 in 195.0 W/m2 BKN
11:35 40.4 °F 35.0 °F 29.46 in NW 8.7 mph 17.0 mph 81 % 0.00 in 209.0 W/m2 SCT
11:40 40.5 °F 35.1 °F 29.46 in NW 3.9 mph 9.2 mph 81 % 0.00 in 193.0 W/m2 BKN
11:45 40.6 °F 35.2 °F 29.46 in NW 10.3 mph 16.1 mph 81 % 0.00 in 204.0 W/m2 BKN
11:50 40.8 °F 35.1 °F 29.45 in North 8.2 mph 13.8 mph 80 % 0.00 in 211.0 W/m2 SCT
11:55 40.7 °F 35.0 °F 29.45 in North 8.3 mph 11.5 mph 80 % 0.00 in 185.0 W/m2 BKN
12:00 40.6 °F 34.9 °F 29.45 in NNW 7.9 mph 11.5 mph 80 % 0.00 in 197.0 W/m2 BKN
12:05 40.8 °F 35.4 °F 29.45 in NNE 9.8 mph 16.1 mph 81 % 0.00 in 232.0 W/m2 SCT
12:10 40.9 °F 35.5 °F 29.44 in North 7.5 mph 11.5 mph 81 % 0.00 in 237.0 W/m2 SCT
12:15 41.0 °F 35.6 °F 29.44 in NNW 5.1 mph 9.2 mph 81 % 0.00 in 236.0 W/m2 SCT
12:20 41.1 °F 35.4 °F 29.44 in NNW 7.2 mph 12.7 mph 80 % 0.00 in 234.0 W/m2 SCT
12:25 41.2 °F 35.5 °F 29.44 in NW 7.6 mph 12.7 mph 80 % 0.00 in 250.0 W/m2 SCT
12:30 41.4 °F 35.7 °F 29.44 in NNW 7.0 mph 12.0 mph 80 % 0.00 in 265.0 W/m2 SCT
12:35 41.5 °F 35.5 °F 29.43 in NNW 8.2 mph 11.0 mph 79 % 0.00 in 339.0 W/m2 FEW
12:40 41.9 °F 35.9 °F 29.43 in NW 10.5 mph 15.0 mph 79 % 0.00 in 374.0 W/m2 CLR
12:45 42.3 °F 35.9 °F 29.43 in NW 8.6 mph 16.1 mph 78 % 0.00 in 508.0 W/m2 CLR
12:50 42.9 °F 36.5 °F 29.43 in NNW 9.0 mph 15.0 mph 78 % 0.00 in 425.0 W/m2 CLR
12:55 44.0 °F 37.6 °F 29.42 in NW 8.7 mph 11.5 mph 78 % 0.00 in 504.0 W/m2 CLR
13:00 44.2 °F 37.1 °F 29.43 in North 7.3 mph 12.7 mph 76 % 0.00 in 782.0 W/m2 CLR
13:05 45.1 °F 38.0 °F 29.43 in NW 10.1 mph 13.8 mph 76 % 0.00 in 615.0 W/m2 CLR
13:10 44.4 °F 37.0 °F 29.42 in NNW 10.4 mph 17.3 mph 75 % 0.00 in 524.0 W/m2 CLR
13:15 44.5 °F 37.1 °F 29.42 in NW 10.5 mph 13.0 mph 75 % 0.00 in 446.0 W/m2 CLR
13:20 43.5 °F 35.8 °F 29.43 in WNW 11.1 mph 16.1 mph 74 % 0.00 in 176.0 W/m2 BKN
13:25 42.5 °F 35.1 °F 29.43 in NW 12.0 mph 18.4 mph 75 % 0.00 in 149.0 W/m2 BKN
13:30 41.7 °F 34.7 °F 29.43 in NW 11.6 mph 16.1 mph 76 % 0.00 in 179.0 W/m2 BKN
13:35 41.5 °F 34.8 °F 29.43 in WNW 11.2 mph 19.6 mph 77 % 0.00 in 288.0 W/m2 SCT
13:40 41.6 °F 35.2 °F 29.43 in NW 10.5 mph 15.0 mph 78 % 0.00 in 243.0 W/m2 SCT
13:46 41.5 °F 34.8 °F 29.44 in NW 10.2 mph 19.6 mph 77 % 0.00 in 186.0 W/m2 SCT
13:51 41.2 °F 34.5 °F 29.43 in WNW 12.6 mph 19.6 mph 77 % 0.00 in 197.0 W/m2 SCT
13:56 41.0 °F 34.3 °F 29.43 in NNW 7.5 mph 16.1 mph 77 % 0.00 in 220.0 W/m2 SCT
14:01 41.2 °F 34.5 °F 29.44 in NW 10.3 mph 16.1 mph 77 % 0.00 in 213.0 W/m2 SCT
14:06 41.2 °F 34.5 °F 29.44 in NNW 8.4 mph 15.0 mph 77 % 0.00 in 243.0 W/m2 SCT
14:11 41.7 °F 35.0 °F 29.44 in NW 11.7 mph 18.4 mph 77 % 0.00 in 213.0 W/m2 SCT
14:16 41.6 °F 34.6 °F 29.44 in NNW 12.7 mph 17.3 mph 76 % 0.00 in 246.0 W/m2 FEW
14:21 41.7 °F 34.7 °F 29.44 in North 8.7 mph 17.3 mph 76 % 0.00 in 218.0 W/m2 SCT
14:26 41.9 °F 34.9 °F 29.44 in North 7.0 mph 9.2 mph 76 % 0.00 in 243.0 W/m2 FEW
14:31 42.1 °F 34.7 °F 29.44 in NNW 8.7 mph 18.4 mph 75 % 0.00 in 315.0 W/m2 CLR
14:36 42.7 °F 35.0 °F 29.44 in NW 14.9 mph 20.0 mph 74 % 0.00 in 308.0 W/m2 CLR
14:41 42.6 °F 34.9 °F 29.44 in NNW 14.5 mph 18.4 mph 74 % 0.00 in 281.0 W/m2 CLR
14:46 41.9 °F 33.9 °F 29.45 in NNW 10.2 mph 20.0 mph 73 % 0.00 in 207.0 W/m2 CLR
14:51 41.5 °F 33.8 °F 29.45 in NW 14.7 mph 20.7 mph 74 % 0.00 in 237.0 W/m2 FEW
14:56 41.6 °F 34.3 °F 29.45 in WNW 9.9 mph 12.7 mph 75 % 0.00 in 229.0 W/m2 CLR
15:01 41.8 °F 34.1 °F 29.45 in NW 11.0 mph 16.1 mph 74 % 0.00 in 163.0 W/m2 SCT
15:06 41.7 °F 34.0 °F 29.45 in WNW 8.5 mph 12.7 mph 74 % 0.00 in 146.0 W/m2 SCT
15:11 41.5 °F 33.8 °F 29.45 in NNW 11.9 mph 17.3 mph 74 % 0.00 in 121.0 W/m2 SCT
15:16 41.3 °F 33.6 °F 29.45 in WNW 6.9 mph 9.2 mph 74 % 0.00 in 109.0 W/m2 SCT
15:21 41.3 °F 33.6 °F 29.46 in NW 10.9 mph 16.1 mph 74 % 0.00 in 91.0 W/m2 BKN
15:26 41.1 °F 33.4 °F 29.46 in West 11.3 mph 18.4 mph 74 % 0.00 in 76.0 W/m2 BKN
15:31 41.0 °F 33.3 °F 29.47 in NW 6.5 mph 10.4 mph 74 % 0.00 in 67.0 W/m2 BKN
15:36 41.0 °F 33.7 °F 29.47 in NW 6.3 mph 9.2 mph 75 % 0.00 in 60.0 W/m2 BKN
15:41 40.9 °F 33.6 °F 29.47 in NW 8.5 mph 15.0 mph 75 % 0.00 in 54.0 W/m2 BKN
15:46 40.8 °F 33.5 °F 29.47 in NNW 7.2 mph 11.5 mph 75 % 0.00 in 49.0 W/m2 BKN
15:52 40.7 °F 33.4 °F 29.47 in NNW 11.9 mph 16.1 mph 75 % 0.00 in 47.0 W/m2 RA
15:57 40.6 °F 33.0 °F 29.47 in NNW 9.2 mph 17.3 mph 74 % 0.00 in 42.0 W/m2 RA
16:02 40.6 °F 33.3 °F 29.48 in WNW 6.0 mph 13.8 mph 75 % 0.00 in 35.0 W/m2 BKN
16:07 40.5 °F 33.2 °F 29.48 in NW 7.4 mph 13.8 mph 75 % 0.00 in 30.0 W/m2 OVC
16:12 40.4 °F 33.1 °F 29.48 in WNW 7.0 mph 13.0 mph 75 % 0.00 in 26.0 W/m2 OVC
16:17 40.3 °F 33.0 °F 29.48 in NW 8.1 mph 17.3 mph 75 % 0.00 in 23.0 W/m2 OVC
16:22 40.2 °F 32.9 °F 29.49 in NNW 10.5 mph 13.8 mph 75 % 0.00 in 19.0 W/m2 OVC
16:27 40.1 °F 32.8 °F 29.49 in WNW 12.0 mph 22.0 mph 75 % 0.00 in 14.0 W/m2 OVC
16:32 40.0 °F 33.0 °F 29.49 in NW 13.7 mph 18.4 mph 76 % 0.00 in 11.0 W/m2 OVC
16:37 40.0 °F 33.0 °F 29.50 in NW 10.5 mph 15.0 mph 76 % 0.00 in 9.0 W/m2 OVC
16:42 40.0 °F 33.0 °F 29.50 in West 7.7 mph 9.2 mph 76 % 0.00 in 5.0 W/m2 OVC
16:47 39.9 °F 32.9 °F 29.50 in NW 10.0 mph 15.0 mph 76 % 0.00 in 0.0 W/m2 OVC
16:53 39.9 °F 32.9 °F 29.50 in NW 7.7 mph 11.5 mph 76 % 0.00 in 0.0 W/m2 OVC
16:58 39.9 °F 32.9 °F 29.50 in NW 8.7 mph 13.8 mph 76 % 0.00 in 0.0 W/m2 OVC
17:03 39.8 °F 32.8 °F 29.50 in WNW 8.2 mph 13.8 mph 76 % 0.00 in 0.0 W/m2 OVC
17:08 39.7 °F 32.8 °F 29.50 in NNW 8.7 mph 11.5 mph 76 % 0.00 in 0.0 W/m2 OVC
17:13 39.7 °F 32.8 °F 29.50 in WNW 4.2 mph 9.0 mph 76 % 0.00 in 0.0 W/m2 OVC
17:18 39.7 °F 33.1 °F 29.51 in NW 3.1 mph 11.5 mph 77 % 0.00 in 0.0 W/m2 OVC
17:23 39.6 °F 33.0 °F 29.51 in WNW 6.6 mph 12.7 mph 77 % 0.00 in 0.0 W/m2 OVC
17:28 39.5 °F 33.2 °F 29.51 in WNW 10.7 mph 13.8 mph 78 % 0.00 in 0.0 W/m2 OVC
17:33 39.4 °F 33.1 °F 29.51 in WNW 8.3 mph 11.5 mph 78 % 0.00 in 0.0 W/m2 OVC
17:38 39.2 °F 32.9 °F 29.51 in WNW 8.6 mph 15.0 mph 78 % 0.00 in 0.0 W/m2 OVC
17:43 39.2 °F 33.2 °F 29.51 in WNW 7.0 mph 11.5 mph 79 % 0.00 in 0.0 W/m2 CLR
17:48 39.0 °F 33.0 °F 29.51 in NNW 10.9 mph 16.1 mph 79 % 0.00 in 0.0 W/m2 CLR
17:53 39.0 °F 33.0 °F 29.52 in NW 10.6 mph 16.1 mph 79 % 0.00 in 0.0 W/m2 CLR
17:58 39.0 °F 33.0 °F 29.52 in WNW 7.7 mph 15.0 mph 79 % 0.00 in 0.0 W/m2 CLR
18:03 39.0 °F 33.0 °F 29.52 in WNW 7.6 mph 13.0 mph 79 % 0.00 in 0.0 W/m2 CLR
18:08 38.9 °F 32.9 °F 29.52 in WNW 8.4 mph 13.8 mph 79 % 0.00 in 0.0 W/m2 CLR
18:13 38.9 °F 32.9 °F 29.52 in NW 6.8 mph 13.0 mph 79 % 0.00 in 0.0 W/m2 CLR
18:18 38.9 °F 32.6 °F 29.52 in WNW 7.7 mph 15.0 mph 78 % 0.00 in 0.0 W/m2 CLR
18:23 38.8 °F 32.5 °F 29.52 in NNW 9.5 mph 21.0 mph 78 % 0.00 in 0.0 W/m2 CLR
18:28 38.8 °F 32.2 °F 29.51 in WNW 13.7 mph 19.6 mph 77 % 0.00 in 0.0 W/m2 CLR
18:33 38.8 °F 32.2 °F 29.52 in WNW 9.2 mph 15.0 mph 77 % 0.00 in 0.0 W/m2 CLR
18:38 38.8 °F 31.9 °F 29.52 in NW 5.7 mph 11.5 mph 76 % 0.00 in 0.0 W/m2 CLR
18:43 38.7 °F 32.1 °F 29.52 in WNW 8.0 mph 11.5 mph 77 % 0.00 in 0.0 W/m2 CLR
18:48 38.7 °F 32.1 °F 29.52 in WNW 9.9 mph 18.0 mph 77 % 0.00 in 0.0 W/m2 CLR
18:53 38.6 °F 32.3 °F 29.52 in NW 5.6 mph 9.2 mph 78 % 0.00 in 0.0 W/m2 CLR
18:58 38.5 °F 32.2 °F 29.52 in NW 6.2 mph 8.1 mph 78 % 0.00 in 0.0 W/m2 CLR
19:03 38.4 °F 32.1 °F 29.53 in NW 8.4 mph 16.1 mph 78 % 0.00 in 0.0 W/m2 CLR
19:09 38.3 °F 32.0 °F 29.53 in NW 11.5 mph 16.1 mph 78 % 0.00 in 0.0 W/m2 CLR
19:14 38.3 °F 32.0 °F 29.54 in NW 10.7 mph 19.6 mph 78 % 0.00 in 0.0 W/m2 CLR
19:19 38.3 °F 31.7 °F 29.54 in NW 7.3 mph 11.5 mph 77 % 0.00 in 0.0 W/m2 CLR
19:24 38.3 °F 31.7 °F 29.54 in NW 7.8 mph 12.7 mph 77 % 0.00 in 0.0 W/m2 CLR
19:29 38.3 °F 32.0 °F 29.55 in WNW 7.3 mph 13.0 mph 78 % 0.00 in 0.0 W/m2 CLR
19:34 38.4 °F 32.1 °F 29.55 in NW 6.1 mph 10.4 mph 78 % 0.00 in 0.0 W/m2 CLR
19:39 38.3 °F 32.0 °F 29.55 in NW 6.3 mph 11.5 mph 78 % 0.00 in 0.0 W/m2 CLR
19:44 38.3 °F 32.0 °F 29.56 in WNW 7.7 mph 15.0 mph 78 % 0.00 in 0.0 W/m2 CLR
19:49 38.3 °F 32.0 °F 29.56 in WNW 9.5 mph 12.7 mph 78 % 0.00 in 0.0 W/m2 CLR
19:54 38.2 °F 31.9 °F 29.56 in NW 9.8 mph 13.8 mph 78 % 0.00 in 0.0 W/m2 CLR
19:59 38.2 °F 31.9 °F 29.57 in WNW 12.8 mph 18.4 mph 78 % 0.00 in 0.0 W/m2 CLR
20:04 38.2 °F 31.6 °F 29.57 in NW 10.9 mph 16.1 mph 77 % 0.00 in 0.0 W/m2 CLR
20:09 38.2 °F 31.6 °F 29.56 in WNW 5.3 mph 10.4 mph 77 % 0.00 in 0.0 W/m2 CLR
20:14 38.1 °F 31.5 °F 29.57 in NW 5.7 mph 12.7 mph 77 % 0.00 in 0.0 W/m2 CLR
20:19 38.1 °F 31.2 °F 29.57 in NW 11.3 mph 18.4 mph 76 % 0.00 in 0.0 W/m2 CLR
20:24 38.1 °F 31.2 °F 29.57 in WNW 9.4 mph 16.1 mph 76 % 0.00 in 0.0 W/m2 CLR
20:29 38.0 °F 31.1 °F 29.57 in WNW 4.4 mph 15.0 mph 76 % 0.00 in 0.0 W/m2 CLR
20:34 38.0 °F 31.1 °F 29.57 in NW 9.3 mph 13.8 mph 76 % 0.00 in 0.0 W/m2 CLR
20:39 38.0 °F 31.1 °F 29.57 in NW 6.8 mph 11.5 mph 76 % 0.00 in 0.0 W/m2 CLR
20:44 38.0 °F 31.1 °F 29.58 in NW 10.1 mph 20.7 mph 76 % 0.00 in 0.0 W/m2 CLR
20:49 38.0 °F 31.1 °F 29.58 in NW 10.6 mph 18.4 mph 76 % 0.00 in 0.0 W/m2 CLR
20:54 38.0 °F 31.1 °F 29.58 in WNW 5.8 mph 13.8 mph 76 % 0.00 in 0.0 W/m2 CLR
20:59 38.0 °F 31.1 °F 29.58 in NW 8.4 mph 11.0 mph 76 % 0.00 in 0.0 W/m2 CLR
21:04 38.1 °F 31.2 °F 29.58 in WNW 4.8 mph 11.5 mph 76 % 0.00 in 0.0 W/m2 CLR
21:09 38.0 °F 31.1 °F 29.59 in NW 7.5 mph 11.5 mph 76 % 0.00 in 0.0 W/m2 CLR
21:14 38.0 °F 31.1 °F 29.59 in NW 8.1 mph 13.8 mph 76 % 0.00 in 0.0 W/m2 CLR
21:20 38.0 °F 31.1 °F 29.59 in NW 5.1 mph 12.7 mph 76 % 0.00 in 0.0 W/m2 CLR
21:25 38.0 °F 31.1 °F 29.59 in WNW 6.2 mph 10.4 mph 76 % 0.00 in 0.0 W/m2 CLR
21:30 37.9 °F 31.0 °F 29.59 in West 5.9 mph 11.5 mph 76 % 0.00 in 0.0 W/m2 CLR
21:35 37.9 °F 31.0 °F 29.59 in NW 5.0 mph 14.0 mph 76 % 0.00 in 0.0 W/m2 CLR
21:40 37.9 °F 31.0 °F 29.59 in NW 4.3 mph 11.5 mph 76 % 0.00 in 0.0 W/m2 CLR
21:45 37.9 °F 31.0 °F 29.59 in NNW 5.5 mph 8.1 mph 76 % 0.00 in 0.0 W/m2 CLR
21:50 37.9 °F 31.0 °F 29.59 in WNW 12.6 mph 18.4 mph 76 % 0.00 in 0.0 W/m2 CLR
21:55 37.9 °F 31.0 °F 29.59 in WNW 12.0 mph 20.0 mph 76 % 0.00 in 0.0 W/m2 CLR
22:00 38.0 °F 31.1 °F 29.60 in NW 4.7 mph 15.0 mph 76 % 0.00 in 0.0 W/m2 CLR
22:05 38.0 °F 31.1 °F 29.60 in NW 11.3 mph 16.0 mph 76 % 0.00 in 0.0 W/m2 CLR
22:10 38.0 °F 31.1 °F 29.60 in WNW 7.7 mph 11.5 mph 76 % 0.00 in 0.0 W/m2 CLR
22:15 38.0 °F 31.1 °F 29.60 in West 11.3 mph 13.8 mph 76 % 0.00 in 0.0 W/m2 CLR
22:20 38.0 °F 30.8 °F 29.60 in NW 7.9 mph 12.7 mph 75 % 0.00 in 0.0 W/m2 CLR
22:25 38.0 °F 30.8 °F 29.60 in WNW 8.3 mph 12.0 mph 75 % 0.00 in 0.0 W/m2 CLR
22:30 38.0 °F 30.8 °F 29.60 in WNW 8.1 mph 11.5 mph 75 % 0.00 in 0.0 W/m2 CLR
22:35 38.0 °F 30.8 °F 29.60 in West 3.8 mph 9.2 mph 75 % 0.00 in 0.0 W/m2 CLR
22:40 38.0 °F 30.8 °F 29.60 in WNW 5.2 mph 10.4 mph 75 % 0.00 in 0.0 W/m2 CLR
22:45 38.0 °F 30.8 °F 29.60 in NW 6.3 mph 11.5 mph 75 % 0.00 in 0.0 W/m2 CLR
22:50 38.0 °F 30.8 °F 29.60 in WNW 10.9 mph 17.3 mph 75 % 0.00 in 0.0 W/m2 CLR
22:55 38.0 °F 30.8 °F 29.60 in WNW 8.1 mph 14.0 mph 75 % 0.00 in 0.0 W/m2 CLR
23:00 38.0 °F 30.8 °F 29.60 in NW 13.7 mph 19.6 mph 75 % 0.00 in 0.0 W/m2 CLR
23:05 38.0 °F 30.8 °F 29.60 in NW 9.4 mph 18.0 mph 75 % 0.00 in 0.0 W/m2 CLR
23:10 38.0 °F 30.4 °F 29.60 in NW 10.1 mph 12.7 mph 74 % 0.00 in 0.0 W/m2 CLR
23:15 38.0 °F 30.4 °F 29.60 in WNW 7.9 mph 11.5 mph 74 % 0.00 in 0.0 W/m2 CLR
23:20 37.9 °F 30.4 °F 29.60 in NW 10.4 mph 15.0 mph 74 % 0.00 in 0.0 W/m2 CLR
23:25 37.9 °F 30.4 °F 29.60 in NW 4.8 mph 6.9 mph 74 % 0.00 in 0.0 W/m2 CLR
23:30 37.9 °F 30.4 °F 29.60 in WNW 8.9 mph 11.5 mph 74 % 0.00 in 0.0 W/m2 CLR
23:35 37.8 °F 30.3 °F 29.60 in West 9.8 mph 12.7 mph 74 % 0.00 in 0.0 W/m2 CLR
23:40 37.8 °F 30.3 °F 29.60 in West 10.9 mph 18.4 mph 74 % 0.00 in 0.0 W/m2 CLR
23:45 37.8 °F 30.3 °F 29.60 in WNW 6.5 mph 13.8 mph 74 % 0.00 in 0.0 W/m2 CLR
23:50 37.8 °F 30.6 °F 29.60 in WSW 11.9 mph 16.0 mph 75 % 0.00 in 0.0 W/m2 CLR
23:55 37.9 °F 30.7 °F 29.60 in WNW 10.3 mph 17.3 mph 75 % 0.00 in 0.0 W/m2 CLR
Air Products Campus Weather
Compliments of Weather Underground - 3.25 mb